createdAt,value
2019-01-19T00:01:50.908Z,9.53
2019-01-19T00:04:58.971Z,8.53
2019-01-19T00:08:17.315Z,9.40
2019-01-19T00:11:26.881Z,10.10
2019-01-19T00:14:14.527Z,10.38
2019-01-19T00:17:35.105Z,9.43
2019-01-19T00:20:41.697Z,9.93
2019-01-19T00:23:30.428Z,7.90
2019-01-19T00:26:19.772Z,9.95
2019-01-19T00:29:05.437Z,9.15
2019-01-19T00:31:45.604Z,10.90
2019-01-19T00:34:36.071Z,10.38
2019-01-19T00:37:25.386Z,9.10
2019-01-19T00:40:42.585Z,11.65
2019-01-19T00:43:43.363Z,12.43
2019-01-19T00:46:24.445Z,10.28
2019-01-19T00:49:37.907Z,10.28
2019-01-19T00:52:45.622Z,9.05
2019-01-19T00:55:36.919Z,9.23
2019-01-19T00:58:36.266Z,8.43
2019-01-19T01:02:09.714Z,9.50
2019-01-19T01:05:00.539Z,9.20
2019-01-19T01:08:21.727Z,8.68
2019-01-19T01:11:23.218Z,8.78
2019-01-19T01:14:40.156Z,8.75
2019-01-19T01:17:31.240Z,8.70
2019-01-19T01:20:25.063Z,9.65
2019-01-19T01:23:12.288Z,10.48
2019-01-19T01:26:23.242Z,17.25
2019-01-19T01:29:11.218Z,15.93
2019-01-19T01:31:49.593Z,15.15
2019-01-19T01:34:53.507Z,12.43
2019-01-19T01:37:32.502Z,14.33
2019-01-19T01:40:43.019Z,11.43
2019-01-19T01:44:16.476Z,14.03
2019-01-19T01:47:40.779Z,14.33
2019-01-19T01:50:37.589Z,14.73
2019-01-19T01:53:53.857Z,14.18
2019-01-19T01:56:21.537Z,14.58
2019-01-19T01:59:26.593Z,16.10
2019-01-19T02:02:33.530Z,14.05
2019-01-19T02:05:40.411Z,11.63
2019-01-19T02:08:48.946Z,10.30
2019-01-19T02:11:54.097Z,10.03
2019-01-19T02:14:45.235Z,9.73
2019-01-19T02:18:06.892Z,10.20
2019-01-19T02:21:06.754Z,9.20
2019-01-19T02:23:49.702Z,10.28
2019-01-19T02:27:09.413Z,10.15
2019-01-19T02:30:04.954Z,10.82
2019-01-19T02:33:14.152Z,11.05
2019-01-19T02:36:17.639Z,11.43
2019-01-19T02:39:14.199Z,12.33
2019-01-19T02:42:18.365Z,15.65
2019-01-19T02:45:17.284Z,12.82
2019-01-19T02:48:25.920Z,10.80
2019-01-19T02:51:08.129Z,10.10
2019-01-19T02:54:09.969Z,8.68
2019-01-19T02:57:34.134Z,9.58
2019-01-19T03:00:35.752Z,8.55
2019-01-19T03:03:59.928Z,8.18
2019-01-19T03:06:51.404Z,8.63
2019-01-19T03:10:01.829Z,8.70
2019-01-19T03:13:01.735Z,8.60
2019-01-19T03:16:07.920Z,8.33
2019-01-19T03:19:05.984Z,8.78
2019-01-19T03:22:30.030Z,8.65
2019-01-19T03:25:22.002Z,8.38
2019-01-19T03:28:34.175Z,8.25
2019-01-19T03:31:48.506Z,8.93
2019-01-19T03:34:55.130Z,8.68
2019-01-19T03:38:10.484Z,8.43
2019-01-19T03:41:17.078Z,9.08
2019-01-19T03:44:41.710Z,8.93
2019-01-19T03:47:53.716Z,8.35
2019-01-19T03:50:52.828Z,8.85
2019-01-19T03:53:52.496Z,8.25
2019-01-19T03:56:55.309Z,8.88
2019-01-19T03:59:55.574Z,8.43
2019-01-19T04:03:14.117Z,8.93
2019-01-19T04:06:22.461Z,9.10
2019-01-19T04:09:26.265Z,8.53
2019-01-19T04:12:35.833Z,8.35
2019-01-19T04:15:21.859Z,8.40
2019-01-19T04:18:01.385Z,9.55
2019-01-19T04:21:17.177Z,8.95
2019-01-19T04:23:50.462Z,8.53
2019-01-19T04:26:26.944Z,8.65
2019-01-19T04:28:54.938Z,8.00
2019-01-19T04:31:22.768Z,8.33
2019-01-19T04:33:50.568Z,7.50
2019-01-19T04:36:21.644Z,7.33
2019-01-19T04:38:48.235Z,7.65
2019-01-19T04:41:15.931Z,8.25
2019-01-19T04:43:43.584Z,7.35
2019-01-19T04:46:11.266Z,8.05
2019-01-19T04:48:39.440Z,8.08
2019-01-19T04:51:07.177Z,7.55
2019-01-19T04:53:35.089Z,7.62
2019-01-19T04:56:02.747Z,7.80
2019-01-19T04:58:30.401Z,7.10
2019-01-19T05:00:58.073Z,9.08
2019-01-19T05:03:25.752Z,8.58
2019-01-19T05:05:53.500Z,8.50
2019-01-19T05:08:21.195Z,9.20
2019-01-19T05:10:48.899Z,9.15
2019-01-19T05:13:16.604Z,8.75
2019-01-19T05:15:44.294Z,8.48
2019-01-19T05:18:12.366Z,7.70
2019-01-19T05:20:40.044Z,8.40
2019-01-19T05:23:07.764Z,7.35
2019-01-19T05:25:35.424Z,8.28
2019-01-19T05:28:03.109Z,7.95
2019-01-19T05:30:30.767Z,9.18
2019-01-19T05:32:58.441Z,8.43
2019-01-19T05:35:26.147Z,8.98
2019-01-19T05:37:53.802Z,7.90
2019-01-19T05:40:21.442Z,8.25
2019-01-19T05:42:49.139Z,7.08
2019-01-19T05:45:16.812Z,7.65
2019-01-19T05:47:44.481Z,8.15
2019-01-19T05:50:14.837Z,9.05
2019-01-19T05:52:42.494Z,8.80
2019-01-19T05:55:10.177Z,9.03
2019-01-19T05:57:37.848Z,8.53
2019-01-19T06:00:11.616Z,8.20
2019-01-19T06:02:39.249Z,7.62
2019-01-19T06:05:07.193Z,8.10
2019-01-19T06:07:34.864Z,8.30
2019-01-19T06:10:02.735Z,8.63
2019-01-19T06:12:30.389Z,11.88
2019-01-19T06:14:58.037Z,11.08
2019-01-19T06:17:25.820Z,10.28
2019-01-19T06:19:53.723Z,10.65
2019-01-19T06:22:21.393Z,10.45
2019-01-19T06:24:49.092Z,10.18
2019-01-19T06:27:16.711Z,8.10
2019-01-19T06:29:44.404Z,9.28
2019-01-19T06:32:12.091Z,8.80
2019-01-19T06:34:39.798Z,9.43
2019-01-19T06:37:07.487Z,8.08
2019-01-19T06:39:35.147Z,8.38
2019-01-19T06:42:02.835Z,10.28
2019-01-19T06:44:30.482Z,9.90
2019-01-19T06:46:58.200Z,9.93
2019-01-19T06:49:25.867Z,10.95
2019-01-19T06:51:53.539Z,9.25
2019-01-19T06:54:21.753Z,10.80
2019-01-19T06:56:49.448Z,10.82
2019-01-19T06:59:17.652Z,10.82
2019-01-19T07:01:45.408Z,9.43
2019-01-19T07:04:13.092Z,9.33
2019-01-19T07:06:40.810Z,10.15
2019-01-19T07:09:08.522Z,8.05
2019-01-19T07:11:36.434Z,9.48
2019-01-19T07:14:04.225Z,9.48
2019-01-19T07:16:31.864Z,9.40
2019-01-19T07:18:59.528Z,8.25
2019-01-19T07:21:27.258Z,9.93
2019-01-19T07:23:54.933Z,8.70
2019-01-19T07:26:22.561Z,9.50
2019-01-19T07:28:50.280Z,8.18
2019-01-19T07:31:17.946Z,8.43
2019-01-19T07:33:45.561Z,10.20
2019-01-19T07:36:13.267Z,8.80
2019-01-19T07:38:40.945Z,9.00
2019-01-19T07:41:08.577Z,9.03
2019-01-19T07:43:36.271Z,9.40
2019-01-19T07:46:05.450Z,9.13
2019-01-19T07:48:33.144Z,9.93
2019-01-19T07:51:00.927Z,9.00
2019-01-19T07:53:28.576Z,10.50
2019-01-19T07:55:56.205Z,9.20
2019-01-19T07:58:23.900Z,9.93
2019-01-19T08:00:51.570Z,9.08
2019-01-19T08:03:19.239Z,9.23
2019-01-19T08:05:46.888Z,9.95
2019-01-19T08:08:14.565Z,9.53
2019-01-19T08:10:42.325Z,9.28
2019-01-19T08:13:10.035Z,9.25
2019-01-19T08:15:37.671Z,9.00
2019-01-19T08:18:05.349Z,8.48
2019-01-19T08:20:33.064Z,9.33
2019-01-19T08:23:00.740Z,8.55
2019-01-19T08:25:28.572Z,9.15
2019-01-19T08:27:56.226Z,9.25
2019-01-19T08:30:25.848Z,9.10
2019-01-19T08:32:53.650Z,9.45
2019-01-19T08:35:21.421Z,9.78
2019-01-19T08:37:49.107Z,10.63
2019-01-19T08:40:19.041Z,10.58
2019-01-19T08:42:49.140Z,10.05
2019-01-19T08:45:17.790Z,12.50
2019-01-19T08:47:45.481Z,12.20
2019-01-19T08:50:13.287Z,13.93
2019-01-19T08:52:40.964Z,12.40
2019-01-19T08:55:08.754Z,26.97
2019-01-19T08:57:36.414Z,16.77
2019-01-19T09:00:06.880Z,16.32
2019-01-19T09:02:34.587Z,12.37
2019-01-19T09:05:02.298Z,15.13
2019-01-19T09:07:33.784Z,16.00
2019-01-19T09:09:59.576Z,17.82
2019-01-19T09:12:27.308Z,18.62
2019-01-19T09:14:54.975Z,16.37
2019-01-19T09:17:22.663Z,17.42
2019-01-19T09:19:50.329Z,16.12
2019-01-19T09:22:18.060Z,12.82
2019-01-19T09:24:45.738Z,13.45
2019-01-19T09:27:13.360Z,12.40
2019-01-19T09:29:41.059Z,10.88
2019-01-19T09:32:08.728Z,9.73
2019-01-19T09:34:36.408Z,9.35
2019-01-19T09:37:04.269Z,9.70
2019-01-19T09:39:31.993Z,8.90
2019-01-19T09:41:59.649Z,6.58
2019-01-19T09:44:27.374Z,5.75
2019-01-19T09:46:55.068Z,6.20
2019-01-19T09:49:22.720Z,7.70
2019-01-19T09:51:50.441Z,9.25
2019-01-19T09:54:18.095Z,8.93
2019-01-19T09:56:45.779Z,7.75
2019-01-19T09:59:13.421Z,6.80
2019-01-19T10:01:41.145Z,7.25
2019-01-19T10:04:08.815Z,6.33
2019-01-19T10:06:36.511Z,5.90
2019-01-19T10:09:06.768Z,4.30
2019-01-19T10:11:34.429Z,4.07
2019-01-19T10:14:02.275Z,4.10
2019-01-19T10:16:29.973Z,4.83
2019-01-19T10:18:57.703Z,4.95
2019-01-19T10:21:25.656Z,7.03
2019-01-19T10:23:53.411Z,6.83
2019-01-19T10:26:21.042Z,6.87
2019-01-19T10:28:49.940Z,6.62
2019-01-19T10:31:17.628Z,5.70
2019-01-19T10:33:45.303Z,4.30
2019-01-19T10:36:16.014Z,4.23
2019-01-19T10:38:43.677Z,4.40
2019-01-19T10:41:11.428Z,3.70
2019-01-19T10:43:39.113Z,3.10
2019-01-19T10:46:06.778Z,3.03
2019-01-19T10:48:34.475Z,3.13
2019-01-19T10:51:02.155Z,3.00
2019-01-19T10:53:29.842Z,2.40
2019-01-19T10:55:57.538Z,2.17
2019-01-19T10:58:25.177Z,2.00
2019-01-19T11:00:52.868Z,2.07
2019-01-19T11:03:20.581Z,2.30
2019-01-19T11:05:48.550Z,2.10
2019-01-19T11:08:16.310Z,2.13
2019-01-19T11:10:44.078Z,1.90
2019-01-19T11:13:11.700Z,1.90
2019-01-19T11:15:39.391Z,2.20
2019-01-19T11:18:07.161Z,2.27
2019-01-19T11:20:34.883Z,2.30
2019-01-19T11:23:02.599Z,2.00
2019-01-19T11:25:30.366Z,1.77
2019-01-19T11:27:58.031Z,2.60
2019-01-19T11:30:27.384Z,2.30
2019-01-19T11:32:55.195Z,3.73
2019-01-19T11:35:23.025Z,3.10
2019-01-19T11:37:50.732Z,2.40
2019-01-19T11:40:23.305Z,2.90
2019-01-19T11:42:50.984Z,1.87
2019-01-19T11:45:19.885Z,2.80
2019-01-19T11:47:47.575Z,1.77
2019-01-19T11:50:15.535Z,2.17
2019-01-19T11:52:43.202Z,1.80
2019-01-19T11:55:13.143Z,1.90
2019-01-19T11:57:40.845Z,2.23
2019-01-19T12:00:17.357Z,2.30
2019-01-19T12:02:45.100Z,2.10
2019-01-19T12:05:12.958Z,1.90
2019-01-19T12:07:40.682Z,2.43
2019-01-19T12:10:11.445Z,2.10
2019-01-19T12:12:39.110Z,2.23
2019-01-19T12:15:09.122Z,2.10
2019-01-19T12:17:36.958Z,2.53
2019-01-19T12:20:06.862Z,2.33
2019-01-19T12:22:34.547Z,1.93
2019-01-19T12:25:02.233Z,2.50
2019-01-19T12:27:29.923Z,1.90
2019-01-19T12:29:57.594Z,1.90
2019-01-19T12:32:25.302Z,2.50
2019-01-19T12:34:52.929Z,2.23
2019-01-19T12:37:20.708Z,2.20
2019-01-19T12:39:48.389Z,2.23
2019-01-19T12:42:16.031Z,2.37
2019-01-19T12:44:43.784Z,2.20
2019-01-19T12:47:11.454Z,2.03
2019-01-19T12:49:39.117Z,2.20
2019-01-19T12:52:06.776Z,2.27
2019-01-19T12:54:34.581Z,2.37
2019-01-19T12:57:02.588Z,2.03
2019-01-19T12:59:30.224Z,1.90
2019-01-19T13:01:57.905Z,2.23
2019-01-19T13:04:25.585Z,2.00
2019-01-19T13:07:09.787Z,2.20
2019-01-19T13:09:50.388Z,2.03
2019-01-19T13:12:54.309Z,1.80
2019-01-19T13:16:05.011Z,2.00
2019-01-19T13:19:15.806Z,1.90
2019-01-19T13:22:29.371Z,1.70
2019-01-19T13:25:39.970Z,2.00
2019-01-19T13:28:57.847Z,1.90
2019-01-19T13:31:51.537Z,2.10
2019-01-19T13:35:12.900Z,1.80
2019-01-19T13:38:16.750Z,2.23
2019-01-19T13:41:39.545Z,2.20
2019-01-19T13:44:31.942Z,2.30
2019-01-19T13:47:27.660Z,2.60
2019-01-19T13:50:22.644Z,2.27
2019-01-19T13:53:47.206Z,2.57
2019-01-19T13:57:01.505Z,2.27
2019-01-19T14:00:31.660Z,2.57
2019-01-19T14:03:34.257Z,2.80
2019-01-19T14:06:36.487Z,2.80
2019-01-19T14:09:39.725Z,2.73
2019-01-19T14:12:51.795Z,3.20
2019-01-19T14:15:29.344Z,3.63
2019-01-19T14:18:31.297Z,3.73
2019-01-19T14:21:18.362Z,3.73
2019-01-19T14:24:23.664Z,3.73
2019-01-19T14:27:47.827Z,2.97
2019-01-19T14:31:15.232Z,3.60
2019-01-19T14:34:27.248Z,4.93
2019-01-19T14:37:18.159Z,4.03
2019-01-19T14:40:23.026Z,8.13
2019-01-19T14:43:36.401Z,4.73
2019-01-19T14:46:54.858Z,5.40
2019-01-19T14:50:01.384Z,4.20
2019-01-19T14:53:26.164Z,3.70
2019-01-19T14:56:44.132Z,5.90
2019-01-19T14:59:24.591Z,4.40
2019-01-19T15:02:17.160Z,4.83
2019-01-19T15:04:55.321Z,3.10
2019-01-19T15:07:47.198Z,3.00
2019-01-19T15:10:44.561Z,3.57
2019-01-19T15:13:57.341Z,3.50
2019-01-19T15:16:53.360Z,2.87
2019-01-19T15:20:00.472Z,3.17
2019-01-19T15:22:54.956Z,2.93
2019-01-19T15:25:40.607Z,2.80
2019-01-19T15:28:31.379Z,4.63
2019-01-19T15:31:47.292Z,5.00
2019-01-19T15:35:07.296Z,4.43
2019-01-19T15:38:06.140Z,5.53
2019-01-19T15:41:18.654Z,5.50
2019-01-19T15:44:33.309Z,6.63
2019-01-19T15:47:38.317Z,13.15
2019-01-19T15:50:45.097Z,5.17
2019-01-19T15:53:34.381Z,4.40
2019-01-19T15:56:45.697Z,3.92
2019-01-19T15:59:43.212Z,3.95
2019-01-19T16:03:06.552Z,6.47
2019-01-19T16:06:02.136Z,7.78
2019-01-19T16:08:45.327Z,7.95
2019-01-19T16:11:28.561Z,7.00
2019-01-19T16:14:26.667Z,6.83
2019-01-19T16:17:27.099Z,5.28
2019-01-19T16:20:28.806Z,4.50
2019-01-19T16:23:48.436Z,4.40
2019-01-19T16:27:09.921Z,4.20
2019-01-19T16:30:22.415Z,3.90
2019-01-19T16:33:18.585Z,4.12
2019-01-19T16:36:18.851Z,4.87
2019-01-19T16:39:25.391Z,5.20
2019-01-19T16:42:18.346Z,5.20
2019-01-19T16:45:26.455Z,5.53
2019-01-19T16:48:44.841Z,5.03
2019-01-19T16:52:03.000Z,9.58
2019-01-19T16:55:15.501Z,9.20
2019-01-19T16:58:51.764Z,7.87
2019-01-19T17:01:28.465Z,5.20
2019-01-19T17:04:28.469Z,6.53
2019-01-19T17:07:36.267Z,5.95
2019-01-19T17:10:51.460Z,6.00
2019-01-19T17:14:18.895Z,5.08
2019-01-19T17:17:18.267Z,5.42
2019-01-19T17:20:16.003Z,5.90
2019-01-19T17:23:21.060Z,5.60
2019-01-19T17:26:32.471Z,6.10
2019-01-19T17:29:21.559Z,5.42
2019-01-19T17:32:10.388Z,6.12
2019-01-19T17:35:16.989Z,6.12
2019-01-19T17:38:25.113Z,5.42
2019-01-19T17:41:37.164Z,5.83
2019-01-19T17:44:29.313Z,6.22
2019-01-19T17:47:19.530Z,5.90
2019-01-19T17:50:37.488Z,5.37
2019-01-19T17:53:55.792Z,5.65
2019-01-19T17:56:36.962Z,6.08
2019-01-19T17:59:45.612Z,6.42
2019-01-19T18:02:56.283Z,6.08
2019-01-19T18:06:11.677Z,6.00
2019-01-19T18:09:21.669Z,6.50
2019-01-19T18:12:27.976Z,6.30
2019-01-19T18:16:01.449Z,5.37
2019-01-19T18:19:06.043Z,5.90
2019-01-19T18:21:51.257Z,6.55
2019-01-19T18:24:47.742Z,6.90
2019-01-19T18:27:37.305Z,6.22
2019-01-19T18:30:42.986Z,6.45
2019-01-19T18:33:20.962Z,6.47
2019-01-19T18:36:04.891Z,6.10
2019-01-19T18:39:32.233Z,6.05
2019-01-19T18:42:35.829Z,6.30
2019-01-19T18:45:48.267Z,6.90
2019-01-19T18:48:50.839Z,5.78
2019-01-19T18:51:56.828Z,5.85
2019-01-19T18:55:01.686Z,6.55
2019-01-19T18:58:21.381Z,5.60
2019-01-19T19:01:10.842Z,5.40
2019-01-19T19:04:37.986Z,7.00
2019-01-19T19:07:40.347Z,6.17
2019-01-19T19:10:54.163Z,7.30
2019-01-19T19:13:29.557Z,7.33
2019-01-19T19:16:40.309Z,8.15
2019-01-19T19:19:41.970Z,7.25
2019-01-19T19:22:53.950Z,7.08
2019-01-19T19:25:47.106Z,7.08
2019-01-19T19:29:01.946Z,7.35
2019-01-19T19:32:03.936Z,6.53
2019-01-19T19:35:09.191Z,7.25
2019-01-19T19:38:04.348Z,8.55
2019-01-19T19:41:09.548Z,9.13
2019-01-19T19:44:18.018Z,8.18
2019-01-19T19:47:10.167Z,8.15
2019-01-19T19:50:22.453Z,9.00
2019-01-19T19:52:50.157Z,8.80
2019-01-19T19:55:16.746Z,8.98
2019-01-19T19:57:44.397Z,8.85
2019-01-19T20:00:12.225Z,9.30
2019-01-19T20:02:39.895Z,7.72
2019-01-19T20:05:07.680Z,7.53
2019-01-19T20:07:35.481Z,8.03
2019-01-19T20:10:03.623Z,8.35
2019-01-19T20:12:31.287Z,7.92
2019-01-19T20:14:59.011Z,7.35
2019-01-19T20:17:26.773Z,7.22
2019-01-19T20:19:54.489Z,7.25
2019-01-19T20:22:22.152Z,8.03
2019-01-19T20:24:49.804Z,7.30
2019-01-19T20:27:17.444Z,7.42
2019-01-19T20:29:45.167Z,7.17
2019-01-19T20:32:12.926Z,6.67
2019-01-19T20:34:40.580Z,7.58
2019-01-19T20:37:08.263Z,7.40
2019-01-19T20:39:35.961Z,7.55
2019-01-19T20:42:03.822Z,8.13
2019-01-19T20:44:31.526Z,7.78
2019-01-19T20:46:59.292Z,8.08
2019-01-19T20:49:26.948Z,8.23
2019-01-19T20:51:54.580Z,6.90
2019-01-19T20:54:22.254Z,7.60
2019-01-19T20:56:50.804Z,8.10
2019-01-19T20:59:18.504Z,7.58
2019-01-19T21:01:46.128Z,7.87
2019-01-19T21:04:15.841Z,7.70
2019-01-19T21:06:43.396Z,8.03
2019-01-19T21:09:11.501Z,7.12
2019-01-19T21:11:39.197Z,8.05
2019-01-19T21:14:06.938Z,7.47
2019-01-19T21:16:34.652Z,6.60
2019-01-19T21:19:02.547Z,7.25
2019-01-19T21:21:30.208Z,7.20
2019-01-19T21:23:57.877Z,6.97
2019-01-19T21:26:25.535Z,8.25
2019-01-19T21:28:53.193Z,7.58
2019-01-19T21:31:20.846Z,7.33
2019-01-19T21:33:48.528Z,9.40
2019-01-19T21:36:16.237Z,8.40
2019-01-19T21:38:43.883Z,10.85
2019-01-19T21:41:11.623Z,13.00
2019-01-19T21:43:39.327Z,11.33
2019-01-19T21:46:06.994Z,15.28
2019-01-19T21:48:34.679Z,18.07
2019-01-19T21:51:02.358Z,15.60
2019-01-19T21:53:30.048Z,12.90
2019-01-19T21:55:57.724Z,10.58
2019-01-19T21:58:25.384Z,10.60
2019-01-19T22:00:53.055Z,10.63
2019-01-19T22:03:20.756Z,11.15
2019-01-19T22:05:49.814Z,11.93
2019-01-19T22:08:17.733Z,11.38
2019-01-19T22:10:46.383Z,12.55
2019-01-19T22:13:14.280Z,12.43
2019-01-19T22:15:42.002Z,12.93
2019-01-19T22:18:09.648Z,14.10
2019-01-19T22:20:37.420Z,10.63
2019-01-19T22:23:05.092Z,11.57
2019-01-19T22:25:32.773Z,10.72
2019-01-19T22:28:00.411Z,10.15
2019-01-19T22:30:28.045Z,11.38
2019-01-19T22:32:56.214Z,9.93
2019-01-19T22:35:26.560Z,11.15
2019-01-19T22:37:54.241Z,10.82
2019-01-19T22:40:21.913Z,10.38
2019-01-19T22:42:49.664Z,10.35
2019-01-19T22:45:17.419Z,11.60
2019-01-19T22:47:45.252Z,11.12
2019-01-19T22:50:14.739Z,11.43
2019-01-19T22:52:42.473Z,11.53
2019-01-19T22:55:10.229Z,11.68
2019-01-19T22:57:37.922Z,12.40
2019-01-19T23:00:37.061Z,11.50
2019-01-19T23:03:04.868Z,11.73
2019-01-19T23:05:32.501Z,12.47
2019-01-19T23:08:00.247Z,11.57
2019-01-19T23:10:27.901Z,12.35
2019-01-19T23:12:55.595Z,12.03
2019-01-19T23:15:23.263Z,12.10
2019-01-19T23:17:50.932Z,12.23
2019-01-19T23:20:18.593Z,13.13
2019-01-19T23:22:46.265Z,13.45
2019-01-19T23:25:13.943Z,11.03
2019-01-19T23:27:41.587Z,12.80
2019-01-19T23:30:09.645Z,11.95
2019-01-19T23:32:37.298Z,13.15
2019-01-19T23:35:05.657Z,14.60
2019-01-19T23:37:33.343Z,12.55
2019-01-19T23:40:01.866Z,11.33
2019-01-19T23:42:29.678Z,10.23
2019-01-19T23:44:57.320Z,12.47
2019-01-19T23:47:24.982Z,13.45
2019-01-19T23:49:52.668Z,12.85
2019-01-19T23:52:20.305Z,13.60
2019-01-19T23:54:47.950Z,12.37
2019-01-19T23:57:15.621Z,13.40
2019-01-19T23:59:43.334Z,14.07
